Arkansaw, WI

6:54 PM CST on February 20, 2017 (GMT -0600)
Pepin Township | | Change Station
Active Advisory: Flood Warning

Elev 1106 ft 44.50 °N, 92.16 °W | Updated 10 seconds ago

Rain
Rain
53.1 °F
Feels Like 53.1 °F
N
5.8
Wind Variable Wind from South
Gusts 7.4 mph

Today
High -- | Low -- °F
--% Chance of Precip.
Yesterday
High -- | Low -- °F
Precip. -- in
Pressure 29.72 in
Visibility 7.0 miles
Clouds Scattered Clouds 6000 ft
Scattered Clouds 7000 ft
Overcast 8500 ft
Dew Point 52 °F
Humidity 98%
Rainfall 1.07 in
Snow Depth Not available.
7:00 AM 5:44 PM
Waning Crescent, 30% visible
METAR KLUM 210035Z AUTO 17009KT 7SM DZ SCT060 SCT070 OVC085 11/11 A2972 RMK AO2 P0001 T01050105
Pressure 29.72 in
Visibility 7.0 miles
Clouds Scattered Clouds 6000 ft
Scattered Clouds 7000 ft
Overcast 8500 ft
Dew Point 52 °F
Humidity 98%
Rainfall 1.07 in
Snow Depth Not available.
7:00 AM 5:44 PM
Waning Crescent, 30% visible
METAR KLUM 210035Z AUTO 17009KT 7SM DZ SCT060 SCT070 OVC085 11/11 A2972 RMK AO2 P0001 T01050105

Get Your Daily Forecast Email!

Thanks for signing up!

Be on the lookout for a verification email in your inbox.

You'll start receiving the daily forecast at 8 AM.

×

10-Day Weather Forecast

Almanac

Astronomy

Feb. 20, 2017 Rise Set
Actual Time
Civil Twilight
Nautical Twilight
Astronomical Twilight
Moon
Length of Visible Light
Length of Day
Tomorrow will be .
, % of the Moon is Illuminated

Today's Extremes

State Highs State Lows

Community

WunderPhotos

Upload Photos

1,962,540 photos uploaded!

WunderBlog® & News

Nearby

Air Quality

  Air Quality AQ Index Pollutant
Not available.

Snow Depth

Station Depth Elevation

Earthquake Activity

City Distance Mag. Time & Date
Minimum magnitude displayed is 2.5.

Coastal Water Temperatures

Place Temperature

Stations

Nearby Weather Stations

Station Location Temp. Windchill Dew Point Humidity Wind Precip. Elev Updated Type
                   

Watches & Warnings

Flood Warning
Issued: 8:55 AM CST Feb. 20, 2017 – National Weather Service

The National Weather Service in Chanhassen has issued a

* Flood Warning for
the Chippewa river at Durand.
* From Wednesday afternoon until further notice.
* At 7:45 am Monday the stage was 5.3 feet.
* Moderate flooding is forecast.
* Flood stage is 13.0 feet.
* Forecast... rise above flood stage by Wednesday afternoon and
continue to rise to near 15.5 feet by Friday early afternoon.
* Impact... at 16.5 feet... Highway 10 on the north approach to the
bridge across the Chippewa river may flood.


Lat... Lon 4456 9209 4471 9201 4479 9183 4471 9177 4455 9198

Eta